Time;durP1;ratioP1;P1;durP2;ratioP2;P2;SDS_P1;SDS_P2;PMS_P1;PMS_P2;Temp;Humidity;BMP_temperature;BMP_pressure;BME280_temperature;BME280_humidity;BME280_pressure;Samples;Min_cycle;Max_cycle;Signal;HPM_P1;HPM_P2
2020/12/04 00:00:46;;;;;;;15.75;8.25;;;;;;;-2.84;79.46;102232.06;1899448;75;21306;-34
2020/12/04 00:03:14;;;;;;;16.50;8.67;;;;;;;-2.85;79.56;102239.27;1899519;75;21289;-36
2020/12/04 00:05:43;;;;;;;14.57;8.63;;;;;;;-2.84;79.64;102237.59;1899605;75;21124;-35
2020/12/04 00:08:11;;;;;;;17.02;8.15;;;;;;;-2.84;79.65;102241.44;1826745;78;21169;-42
2020/12/04 00:10:40;;;;;;;19.85;9.33;;;;;;;-2.85;79.67;102243.11;1860613;77;21274;-43
2020/12/04 00:13:08;;;;;;;18.02;8.85;;;;;;;-2.86;79.71;102243.90;1854947;77;21258;-36
2020/12/04 00:15:37;;;;;;;16.93;8.75;;;;;;;-2.86;79.79;102239.16;1855033;77;21136;-34
2020/12/04 00:18:05;;;;;;;20.37;9.45;;;;;;;-2.85;79.86;102244.79;1855127;77;21591;-35
2020/12/04 00:20:33;;;;;;;21.97;9.73;;;;;;;-2.87;79.89;102237.37;1855068;77;21172;-37
2020/12/04 00:23:01;;;;;;;13.20;8.50;;;;;;;-2.88;79.93;102242.02;1854877;77;21136;-35
2020/12/04 00:25:29;;;;;;;16.67;8.98;;;;;;;-2.90;79.96;102248.36;1855098;77;21161;-35
2020/12/04 00:27:58;;;;;;;13.90;8.35;;;;;;;-2.90;80.08;102253.49;1855226;77;21125;-35
2020/12/04 00:30:26;;;;;;;15.98;8.40;;;;;;;-2.90;80.15;102247.08;1854940;77;21152;-43
2020/12/04 00:32:55;;;;;;;15.30;8.50;;;;;;;-2.89;80.17;102247.97;1855169;77;21255;-35
2020/12/04 00:35:23;;;;;;;15.60;8.55;;;;;;;-2.91;80.17;102248.26;1854767;77;21167;-36
2020/12/04 00:37:51;;;;;;;14.25;8.08;;;;;;;-2.93;80.21;102250.72;1855280;77;21128;-36
2020/12/04 00:40:19;;;;;;;15.43;8.83;;;;;;;-2.94;80.30;102245.09;1854876;77;21338;-36
2020/12/04 00:42:47;;;;;;;13.43;8.00;;;;;;;-2.99;80.36;102249.06;1854885;77;21170;-35
2020/12/04 00:45:16;;;;;;;14.63;8.35;;;;;;;-3.03;80.40;102248.78;1855041;77;21361;-36
2020/12/04 00:47:44;;;;;;;16.20;8.43;;;;;;;-3.07;80.47;102246.80;1855145;77;21302;-33
2020/12/04 00:50:12;;;;;;;16.17;8.38;;;;;;;-3.12;80.48;102241.78;1854973;77;21137;-35
2020/12/04 00:52:41;;;;;;;16.10;8.43;;;;;;;-3.17;80.50;102243.17;1855120;77;21559;-42
2020/12/04 00:55:12;;;;;;;;;;;;;;;-3.20;80.61;102247.70;1857584;77;21230;-41
2020/12/04 00:57:40;;;;;;;;;;;;;;;-3.22;80.73;102248.88;1857819;77;20154;-36
2020/12/04 01:00:08;;;;;;;;;;;;;;;-3.23;80.80;102248.81;1857766;77;20382;-34
2020/12/04 01:02:36;;;;;;;;;;;;;;;-3.25;80.84;102249.09;1857690;77;20226;-36
2020/12/04 01:05:05;;;;;;;;;;;;;;;-3.27;80.79;102245.53;1857833;77;20337;-35
2020/12/04 01:07:32;;;;;;;;;;;;;;;-3.28;80.72;102252.34;1857946;77;20174;-35
2020/12/04 01:10:00;;;;;;;;;;;;;;;-3.31;80.74;102252.16;1857720;77;20146;-36
2020/12/04 01:12:28;;;;;;;;;;;;;;;-3.32;80.81;102256.80;1857676;77;20166;-36
2020/12/04 01:14:56;;;;;;;;;;;;;;;-3.32;80.88;102255.91;1857878;77;20142;-37
2020/12/04 01:17:23;;;;;;;;;;;;;;;-3.31;80.91;102258.57;1857976;77;20190;-35
2020/12/04 01:19:51;;;;;;;;;;;;;;;-3.30;80.98;102257.78;1857622;77;20154;-35
2020/12/04 01:22:19;;;;;;;;;;;;;;;-3.30;81.07;102253.94;1857832;77;20178;-35
2020/12/04 01:24:47;;;;;;;;;;;;;;;-3.29;81.08;102258.67;1857620;77;20182;-36
2020/12/04 01:27:14;;;;;;;;;;;;;;;-3.33;81.04;102257.58;1827382;77;20242;-35
2020/12/04 01:29:42;;;;;;;;;;;;;;;-3.35;81.00;102258.29;1857751;77;20166;-35
2020/12/04 01:32:10;;;;;;;;;;;;;;;-3.40;81.02;102260.92;1857585;77;20166;-35
2020/12/04 01:34:38;;;;;;;;;;;;;;;-3.42;81.08;102259.96;1857557;77;20170;-36
2020/12/04 01:37:05;;;;;;;;;;;;;;;-3.43;81.19;102262.92;1857676;77;20420;-45
2020/12/04 01:39:34;;;;;;;;;;;;;;;-3.45;81.29;102261.92;1857661;77;20255;-35
2020/12/04 01:42:02;;;;;;;;;;;;;;;-3.50;81.27;102249.21;1857775;77;20124;-35
2020/12/04 01:44:30;;;;;;;;;;;;;;;-3.54;81.34;102255.33;1827348;77;20230;-35
2020/12/04 01:46:58;;;;;;;;;;;;;;;-3.59;81.43;102252.45;1857626;77;20272;-36
2020/12/04 01:49:25;;;;;;;;;;;;;;;-3.63;81.51;102255.61;1857764;77;20163;-35
2020/12/04 01:51:54;;;;;;;;;;;;;;;-3.66;81.62;102247.31;1827639;77;20277;-36
2020/12/04 01:54:22;;;;;;;;;;;;;;;-3.69;81.66;102252.26;1858058;77;20225;-37
2020/12/04 01:56:50;;;;;;;;;;;;;;;-3.71;81.78;102257.67;1857736;77;20388;-35
2020/12/04 01:59:18;;;;;;;;;;;;;;;-3.73;81.89;102251.55;1857981;77;20134;-35
2020/12/04 02:01:45;;;;;;;;;;;;;;;-3.73;82.01;102252.83;1857587;77;20131;-48
2020/12/04 02:04:14;;;;;;;;;;;;;;;-3.74;82.08;102257.45;1857698;77;20170;-37
2020/12/04 02:06:52;;;;;;;;;;;;;;;-3.75;82.20;102262.11;1857852;77;20408;-36
2020/12/04 02:09:29;;;;;;;;;;;;;;;-3.74;82.30;102256.59;1857992;77;20123;-35
2020/12/04 02:12:00;;;;;;;;;;;;;;;-3.75;82.35;102257.37;1857324;77;20226;-35
2020/12/04 02:14:29;;;;;;;;;;;;;;;-3.75;82.46;102245.45;1857514;77;20178;-34
2020/12/04 02:17:01;;;;;;;;;;;;;;;-3.74;82.47;102246.34;1857705;77;20401;-35
2020/12/04 02:19:29;;;;;;;;;;;;;;;-3.73;82.46;102245.53;1857897;77;20179;-35
2020/12/04 02:21:57;;;;;;;;;;;;;;;-3.73;82.50;102245.14;1857628;77;20147;-35
2020/12/04 02:26:50;;;;;;;;;;;;;;;-3.69;82.62;102253.54;1908235;74;20141;-35
2020/12/04 02:29:17;;;;;;;;;;;;;;;-3.73;82.68;102254.11;1884615;75;20227;-35
2020/12/04 02:31:45;;;;;;;;;;;;;;;-3.74;82.74;102252.33;1903080;75;20120;-36
2020/12/04 02:34:14;;;;;;;;;;;;;;;-3.72;82.78;102256.28;1903245;75;20160;-36
2020/12/04 02:36:41;;;;;;;;;;;;;;;-3.73;82.73;102243.86;1903094;75;20282;-35
2020/12/04 02:39:09;;;;;;;;;;;;;;;-3.73;82.66;102250.66;1903241;75;20140;-35
2020/12/04 02:41:36;;;;;;;;;;;;;;;-3.74;82.62;102251.05;1903031;75;20120;-36
2020/12/04 02:44:04;;;;;;;;;;;;;;;-3.73;82.53;102241.69;1902944;75;20152;-36
2020/12/04 02:46:31;;;;;;;;;;;;;;;-3.75;82.49;102236.87;1903093;75;20155;-36
2020/12/04 02:48:59;;;;;;;;;;;;;;;-3.76;82.46;102253.03;1903001;75;20132;-35
2020/12/04 02:51:27;;;;;;;;;;;;;;;-3.76;82.58;102253.92;1903169;75;20132;-36
2020/12/04 02:53:54;;;;;;;;;;;;;;;-3.75;82.54;102251.86;1903090;75;20132;-36
2020/12/04 02:56:22;;;;;;;;;;;;;;;-3.75;82.51;102258.27;1903059;75;20136;-36
2020/12/04 02:58:50;;;;;;;;;;;;;;;-3.76;82.49;102258.16;1903178;75;20179;-36
2020/12/04 03:01:18;;;;;;;;;;;;;;;-3.75;82.53;102254.81;1903074;75;20192;-36
2020/12/04 03:03:46;;;;;;;;;;;;;;;-3.78;82.52;102255.48;1903223;75;20160;-34
2020/12/04 03:06:13;;;;;;;;;;;;;;;-3.81;82.58;102260.43;1877783;75;20178;-36
2020/12/04 03:08:41;;;;;;;;;;;;;;;-3.83;82.62;102262.38;1867885;77;20205;-34
2020/12/04 03:11:09;;;;;;;;;;;;;;;-3.84;82.67;102255.09;1867913;77;20137;-36
2020/12/04 03:13:37;;;;;;;;;;;;;;;-3.86;82.73;102260.49;1868053;77;20233;-36
2020/12/04 03:16:06;;;;;;;;;;;;;;;-3.87;82.73;102249.75;1867741;77;20152;-36
2020/12/04 03:18:33;;;;;;;;;;;;;;;-3.90;82.67;102248.67;1868072;77;20172;-35
2020/12/04 03:21:01;;;;;;;;;;;;;;;-3.90;82.68;102235.86;1868140;76;20137;-35
2020/12/04 03:23:29;;;;;;;;;;;;;;;-3.93;82.49;102250.63;1868299;77;20223;-35
2020/12/04 03:25:56;;;;;;;;;;;;;;;-3.97;82.41;102247.37;1867858;76;20129;-42
2020/12/04 03:28:24;;;;;;;;;;;;;;;-3.99;82.37;102231.40;1868274;77;20446;-35
2020/12/04 03:30:52;;;;;;;;;;;;;;;-4.02;82.37;102244.52;1867895;76;20224;-35
2020/12/04 03:33:20;;;;;;;;;;;;;;;-4.03;82.38;102235.06;1881008;75;20223;-36
2020/12/04 03:35:47;;;;;;;;;;;;;;;-4.04;82.42;102238.40;1902687;75;20200;-36
2020/12/04 03:38:16;;;;;;;;;;;;;;;-4.06;82.40;102247.64;1899458;75;20195;-38
2020/12/04 03:40:44;;;;;;;;;;;;;;;-4.07;82.37;102256.53;1867268;77;20192;-35
2020/12/04 03:43:12;;;;;;;;;;;;;;;-4.10;82.40;102258.88;1867489;77;20410;-36
2020/12/04 03:45:40;;;;;;;;;;;;;;;-4.11;82.40;102259.27;1867506;76;20219;-36
2020/12/04 03:48:08;;;;;;;;;;;;;;;-4.13;82.43;102254.42;1867439;77;20207;-36
2020/12/04 03:50:35;;;;;;;;;;;;;;;-4.15;82.41;102248.72;1866404;77;20172;-37
2020/12/04 03:53:03;;;;;;;;;;;;;;;-4.15;82.39;102252.56;1869739;76;20174;-36
2020/12/04 03:55:31;;;;;;;;;;;;;;;-4.17;82.41;102255.02;1871084;77;20158;-35
2020/12/04 03:57:59;;;;;;;;;;;;;;;-4.17;82.39;102249.89;1871328;77;20170;-36
2020/12/04 04:00:27;;;;;;;;;;;;;;;-4.18;82.41;102249.78;1870809;77;20190;-35
2020/12/04 04:02:55;;;;;;;;;;;;;;;-4.19;82.48;102256.96;1868659;77;20154;-36
2020/12/04 04:05:23;;;;;;;;;;;;;;;-4.17;82.51;102254.13;1867070;77;20262;-34
2020/12/04 04:07:51;;;;;;;;;;;;;;;-4.18;82.50;102251.06;1867723;75;20134;-34
2020/12/04 04:10:19;;;;;;;;;;;;;;;-4.18;82.51;102263.86;1867368;77;20139;-36
2020/12/04 04:12:47;;;;;;;;;;;;;;;-4.20;82.54;102259.91;1867312;77;20190;-35
2020/12/04 04:15:14;;;;;;;;;;;;;;;-4.22;82.64;102258.94;1867396;77;20169;-34
2020/12/04 04:17:42;;;;;;;;;;;;;;;-4.23;82.66;102257.16;1867419;77;20273;-37
2020/12/04 04:20:10;;;;;;;;;;;;;;;-4.24;82.72;102262.17;1868633;75;20154;-36
2020/12/04 04:22:37;;;;;;;;;;;;;;;-4.25;82.81;102260.39;1867171;77;20222;-35
2020/12/04 04:25:05;;;;;;;;;;;;;;;-4.26;82.90;102259.89;1867274;77;20383;-34
2020/12/04 04:27:33;;;;;;;;;;;;;;;-4.26;82.99;102259.89;1867377;77;20173;-33
2020/12/04 04:30:00;;;;;;;;;;;;;;;-4.26;83.11;102262.06;1867329;77;20261;-34
2020/12/04 04:32:30;;;;;;;;;;;;;;;-4.27;83.24;102259.03;1867166;77;20122;-36
2020/12/04 04:34:59;;;;;;;;;;;;;;;-4.28;83.26;102253.80;1867098;77;20257;-38
2020/12/04 04:37:27;;;;;;;;;;;;;;;-4.31;83.29;102258.70;1891860;75;20298;-35
2020/12/04 04:39:55;;;;;;;;;;;;;;;-4.33;83.37;102256.45;1876411;75;20174;-37
2020/12/04 04:42:23;;;;;;;;;;;;;;;-4.37;83.36;102256.61;1867974;75;20178;-36
2020/12/04 04:44:51;;;;;;;;;;;;;;;-4.38;83.38;102268.02;1867042;77;20147;-36
2020/12/04 04:47:20;;;;;;;;;;;;;;;-4.39;83.42;102257.28;1867386;77;20126;-35
2020/12/04 04:49:51;;;;;;;;;;;;;;;-4.39;83.51;102266.23;1869247;75;20213;-36
2020/12/04 04:52:19;;;;;;;;;;;;;;;-4.40;83.60;102256.42;1867336;75;20167;-37
2020/12/04 04:54:48;;;;;;;;;;;;;;;-4.40;83.69;102265.77;1867260;77;20404;-36
2020/12/04 04:57:21;;;;;;;;;;;;;;;-4.39;83.79;102270.97;1875910;75;20147;-37
2020/12/04 04:59:54;;;;;;;;;;;;;;;-4.39;83.83;102267.13;1868309;75;20134;-38
2020/12/04 05:02:24;;;;;;;;;;;;;;;-4.39;83.93;102276.09;1879940;75;20180;-37
2020/12/04 05:04:54;;;;;;;;;;;;;;;-4.38;83.97;102279.15;1885409;75;20278;-34
2020/12/04 05:07:30;;;;;;;;;;;;;;;-4.37;84.01;102280.04;1872619;75;20138;-36
2020/12/04 05:10:17;;;;;;;;;;;;;;;-4.35;84.04;102282.33;1871625;75;20277;-35
2020/12/04 05:12:47;;;;;;;;;;;;;;;-4.35;84.00;102273.36;1874404;75;20170;-37
2020/12/04 05:15:20;;;;;;;;;;;;;;;-4.37;83.91;102285.16;1872392;75;20513;-45
2020/12/04 05:18:11;;;;;;;;;;;;;;;-4.38;83.78;102276.59;1870037;75;20420;-39
2020/12/04 05:20:41;;;;;;;;;;;;;;;-4.42;83.63;102283.19;1867015;77;20298;-36
2020/12/04 05:23:09;;;;;;;;;;;;;;;-4.45;83.55;102281.68;1894779;75;20224;-40
2020/12/04 05:25:39;;;;;;;;;;;;;;;-4.45;83.56;102280.41;1866715;77;20277;-37
2020/12/04 05:28:13;;;;;;;;;;;;;;;-4.45;83.61;102285.91;1866961;77;20209;-35
2020/12/04 05:30:42;;;;;;;;;;;;;;;-4.45;83.68;102285.52;1873839;75;20226;-37
2020/12/04 05:33:10;;;;;;;;;;;;;;;-4.44;83.68;102289.86;1869262;75;20565;-37
2020/12/04 05:35:38;;;;;;;;;;;;;;;-4.44;83.74;102283.46;1871383;75;20186;-37
2020/12/04 05:38:11;;;;;;;;;;;;;;;-4.43;83.86;102302.27;1869722;75;20222;-39
2020/12/04 05:40:51;;;;;;;;;;;;;;;-4.43;83.93;102293.31;1886888;75;20247;-38
2020/12/04 05:43:35;;;;;;;;;;;;;;;-4.43;83.91;102295.88;1869216;75;20184;-37
2020/12/04 05:46:17;;;;;;;;;;;;;;;-4.44;83.80;102299.20;1871611;75;20172;-37
2020/12/04 05:48:56;;;;;;;;;;;;;;;-4.48;83.78;102303.24;1877949;75;20279;-39
2020/12/04 05:51:27;;;;;;;;;;;;;;;-4.50;83.72;102298.40;1873764;75;20154;-38
2020/12/04 05:53:55;;;;;;;;;;;;;;;-4.50;83.69;102312.86;1870791;75;20281;-39
2020/12/04 05:56:23;;;;;;;;;;;;;;;-4.52;83.73;102322.09;1870014;75;20223;-37
2020/12/04 05:58:55;;;;;;;;;;;;;;;-4.51;83.76;102322.20;1870888;75;20171;-38
2020/12/04 06:01:23;;;;;;;;;;;;;;;-4.50;83.82;102326.55;1878682;75;20178;-38
2020/12/04 06:03:52;;;;;;;;;;;;;;;-4.51;83.79;102335.00;1867133;75;20412;-36
2020/12/04 06:06:34;;;;;;;;;;;;;;;-4.50;83.85;102330.78;1871828;75;20184;-39
2020/12/04 06:09:05;;;;;;;;;;;;;;;-4.46;83.92;102334.92;1846984;75;20221;-38
2020/12/04 06:11:40;;;;;;;;;;;;;;;-4.44;83.97;102331.20;1871250;75;20202;-37
2020/12/04 06:14:17;;;;;;;;;;;;;;;-4.44;83.94;102342.72;1875625;75;20175;-38
2020/12/04 06:17:07;;;;;;;;;;;;;;;-4.44;84.02;102341.05;1872958;75;20172;-38
2020/12/04 06:19:37;;;;;;;;;;;;;;;-4.43;84.04;102336.44;1876880;75;20163;-37
2020/12/04 06:22:15;;;;;;;;;;;;;;;-4.40;84.06;102347.68;1814159;75;20123;-38
2020/12/04 06:26:51;;;;;;;;;;;;;;;-4.35;84.19;102334.41;1893418;74;20271;-38
2020/12/04 06:29:18;;;;;;;;;;;;;;;-4.38;84.29;102330.34;1866366;75;20166;-52
2020/12/04 06:31:47;;;;;;;;;;;;;;;-4.38;84.32;102331.63;1870951;75;20116;-39
2020/12/04 06:34:19;;;;;;;;;;;;;;;-4.39;84.31;102333.68;1868056;75;20186;-38
2020/12/04 06:36:48;;;;;;;;;;;;;;;-4.42;84.35;102333.48;1838488;75;20186;-39
2020/12/04 06:39:30;;;;;;;;;;;;;;;-4.40;84.37;102333.60;1878640;75;20273;-38
2020/12/04 06:42:00;;;;;;;;;;;;;;;-4.40;84.37;102338.33;1872514;75;20199;-39
2020/12/04 06:44:31;;;;;;;;;;;;;;;-4.40;84.44;102333.21;1872220;75;20201;-38
2020/12/04 06:46:59;;;;;;;;;;;;;;;-4.39;84.57;102344.30;1870432;75;20452;-38
2020/12/04 06:52:04;;;;;;;;;;;;;;;-4.37;84.78;102341.09;1871294;75;20143;-39
2020/12/04 06:54:34;;;;;;;;;;;;;;;-4.34;84.85;102350.66;1879912;75;20222;-38
2020/12/04 06:57:04;;;;;;;;;;;;;;;-4.34;84.85;102345.55;1831941;77;20163;-38
2020/12/04 06:59:34;;;;;;;;;;;;;;;-4.33;84.90;102343.48;1832251;77;20464;-38
2020/12/04 07:02:12;;;;;;;;;;;;;;;-4.32;84.91;102343.95;1832164;77;20491;-39
2020/12/04 07:04:44;;;;;;;;;;;;;;;-4.33;84.94;102345.63;1836294;77;20196;-37
2020/12/04 07:07:20;;;;;;;;;;;;;;;-4.30;85.04;102342.40;1841042;77;20152;-43
2020/12/04 07:09:56;;;;;;;;;;;;;;;-4.27;85.12;102332.38;1834520;77;20203;-39
2020/12/04 07:12:26;;;;;;;;;;;;;;;-4.23;85.02;102339.48;1812886;78;20196;-38
2020/12/04 07:14:56;;;;;;;;;;;;;;;-4.25;84.98;102338.09;1804729;78;20224;-38
2020/12/04 07:17:25;;;;;;;;;;;;;;;-4.22;85.02;102336.14;1807716;78;20215;-39
2020/12/04 07:19:53;;;;;;;;;;;;;;;-4.19;85.04;102345.30;1807953;78;20503;-38
2020/12/04 07:22:22;;;;;;;;;;;;;;;-4.21;84.97;102341.38;1808236;78;20226;-38
2020/12/04 07:24:51;;;;;;;;;;;;;;;-4.23;85.00;102342.04;1775063;78;20294;-38
2020/12/04 07:27:22;;;;;;;;;;;;;;;-4.20;85.12;102351.23;1792726;78;20131;-38
2020/12/04 07:29:50;;;;;;;;;;;;;;;-4.20;85.03;102347.39;1802024;78;20131;-38
2020/12/04 07:32:23;;;;;;;;;;;;;;;-4.25;84.84;102358.95;1801704;78;20214;-38
2020/12/04 07:34:51;;;;;;;;;;;;;;;-4.27;84.84;102348.64;1784823;78;20481;-38
2020/12/04 07:37:19;;;;;;;;;;;;;;;-4.23;84.86;102358.68;1807624;78;20182;-38
2020/12/04 07:39:47;;;;;;;;;;;;;;;-4.19;84.87;102345.30;1803828;78;20154;-39
2020/12/04 07:42:16;;;;;;;;;;;;;;;-4.20;84.84;102358.91;1811379;78;20277;-38
2020/12/04 07:44:55;;;;;;;;;;;;;;;-4.17;84.93;102353.98;1832436;77;20173;-39
2020/12/04 07:47:23;;;;;;;;;;;;;;;-4.11;85.01;102365.92;1811196;77;20178;-40
2020/12/04 07:49:56;;;;;;;;;;;;;;;-4.09;84.99;102349.89;1831504;77;20165;-38
2020/12/04 07:52:33;;;;;;;;;;;;;;;-4.05;84.97;102354.43;1815189;77;20192;-44
2020/12/04 07:55:06;;;;;;;;;;;;;;;-4.03;84.94;102352.88;1812266;78;20192;-39
2020/12/04 07:57:44;;;;;;;;;;;;;;;-4.04;84.76;102350.20;1808800;78;20469;-40
2020/12/04 08:00:15;;;;;;;;;;;;;;;-4.08;84.77;102352.95;1795125;77;20184;-39
2020/12/04 08:02:44;;;;;;;;;;;;;;;-4.06;84.91;102351.36;1799980;78;20309;-38
2020/12/04 08:05:22;;;;;;;;;;;;;;;-4.04;84.97;102347.64;1809085;78;20175;-39
2020/12/04 08:07:51;;;;;;;;;;;;;;;-4.03;85.08;102355.44;1830067;77;20279;-39
2020/12/04 08:10:21;;;;;;;;;;;;;;;-3.98;85.14;102357.02;1830410;77;20230;-39
2020/12/04 08:12:49;;;;;;;;;;;;;;;-3.96;85.11;102352.00;1832308;77;20160;-38
2020/12/04 08:15:19;;;;;;;;;;;;;;;-3.97;85.09;102356.23;1831484;77;20200;-38
2020/12/04 08:17:51;;;;;;;;;;;;;;;-3.97;85.11;102356.23;1834099;77;20219;-39
2020/12/04 08:20:19;;;;;;;;;;;;;;;-3.97;85.12;102354.06;1832600;77;20210;-38
2020/12/04 08:22:49;;;;;;;;;;;;;;;-3.97;85.08;102348.55;1821254;77;20212;-38
2020/12/04 08:25:25;;;;;;;;;;;;;;;-3.95;85.14;102349.55;1815987;77;20188;-37
2020/12/04 08:27:53;;;;;;;;;;;;;;;-3.93;85.09;102356.03;1830382;77;20197;-38
2020/12/04 08:30:23;;;;;;;;;;;;;;;-3.91;85.11;102359.22;1831114;77;20223;-39
2020/12/04 08:32:58;;;;;;;;;;;;;;;-3.91;85.12;102351.53;1835021;77;20206;-38
2020/12/04 08:35:34;;;;;;;;;;;;;;;-3.89;85.11;102343.95;1816680;78;20207;-44
2020/12/04 08:38:07;;;;;;;;;;;;;;;-3.88;85.15;102341.89;1803689;77;20208;-39
2020/12/04 08:40:35;;;;;;;;;;;;;;;-3.85;85.23;102351.05;1812601;77;20232;-39
2020/12/04 08:43:16;;;;;;;;;;;;;;;-3.81;85.24;102350.10;1824822;77;20212;-39
2020/12/04 08:45:46;;;;;;;;;;;;;;;-3.77;85.24;102346.95;1815984;78;20188;-38
2020/12/04 08:48:17;;;;;;;;;;;;;;;-3.76;85.21;102343.61;1818665;78;20227;-39
2020/12/04 08:50:49;;;;;;;;;;;;;;;-3.73;85.23;102351.87;1760203;78;20302;-38
2020/12/04 08:53:28;;;;;;;;;;;;;;;-3.69;85.26;102344.91;1807999;77;20180;-39
2020/12/04 08:55:58;;;;;;;;;;;;;;;-3.66;85.29;102336.13;1803393;78;20224;-39
2020/12/04 08:58:26;;;;;;;;;;;;;;;-3.61;85.35;102343.32;1837938;77;20303;-38
2020/12/04 09:00:55;;;;;;;;;;;;;;;-3.56;85.30;102342.77;1807474;77;20195;-39
2020/12/04 09:03:25;;;;;;;;;;;;;;;-3.53;85.26;102337.82;1797892;78;20647;-38
2020/12/04 09:05:55;;;;;;;;;;;;;;;-3.51;85.21;102333.30;1824460;77;20315;-40
2020/12/04 09:08:22;;;;;;;;;;;;;;;-3.47;85.19;102330.14;1812393;78;20146;-39
2020/12/04 09:10:50;;;;;;;;;;;;;;;-3.44;85.17;102322.66;1816567;78;20275;-39
2020/12/04 09:13:18;;;;;;;;;;;;;;;-3.44;85.04;102322.66;1814884;78;20252;-39
2020/12/04 09:15:47;;;;;;;;;;;;;;;-3.42;85.01;102321.49;1816092;78;20544;-39
2020/12/04 09:18:16;;;;;;;;;;;;;;;-3.44;84.93;102316.64;1815958;78;20166;-39
2020/12/04 09:20:44;;;;;;;;;;;;;;;-3.41;84.95;102326.69;1815829;78;20483;-40
2020/12/04 09:23:12;;;;;;;;;;;;;;;-3.39;84.83;102313.98;1809310;78;20328;-39
2020/12/04 09:25:40;;;;;;;;;;;;;;;-3.41;84.78;102323.23;1786400;78;20228;-38
2020/12/04 09:28:11;;;;;;;;;;;;;;;-3.41;84.83;102326.69;1771858;78;20869;-45
2020/12/04 09:30:39;;;;;;;;;;;;;;;-3.38;84.86;102316.66;1755376;78;20196;-40
2020/12/04 09:33:11;;;;;;;;;;;;;;;-3.37;84.85;102317.16;1773991;78;20230;-39
2020/12/04 09:35:40;;;;;;;;;;;;;;;-3.39;84.84;102330.25;1747269;78;20150;-39
2020/12/04 09:38:10;;;;;;;;;;;;;;;-3.39;84.92;102332.82;1780439;78;20271;-39
2020/12/04 09:40:39;;;;;;;;;;;;;;;-3.37;85.02;102332.53;1723434;77;20167;-39
2020/12/04 09:43:08;;;;;;;;;;;;;;;-3.38;85.08;102338.84;1841787;77;20275;-39
2020/12/04 09:45:39;;;;;;;;;;;;;;;-3.39;85.19;102331.54;1794828;78;20176;-39
2020/12/04 09:48:07;;;;;;;;;;;;;;;-3.38;85.37;102341.41;1813770;78;20507;-39
2020/12/04 09:50:36;;;;;;;;;;;;;;;-3.38;85.57;102341.41;1803408;78;20136;-39
2020/12/04 09:53:06;;;;;;;;;;;;;;;-3.35;85.77;102334.78;1803345;80;20186;-39
2020/12/04 09:55:34;;;;;;;;;;;;;;;-3.33;85.97;102335.78;1811825;78;20196;-38
2020/12/04 09:58:01;;;;;;;;;;;;;;;-3.31;86.17;102326.52;1805317;78;20196;-39
2020/12/04 10:00:29;;;;;;;;;;;;;;;-3.29;86.35;102326.63;1811832;78;20182;-39
2020/12/04 10:02:57;;;;;;;;;;;;;;;-3.27;86.54;102332.33;1807717;78;20215;-39
2020/12/04 10:05:25;;;;;;;;;;;;;;;-3.24;86.73;102331.27;1811377;78;20299;-39
2020/12/04 10:07:53;;;;;;;;;;;;;;;-3.18;86.89;102335.00;1806190;78;20202;-39
2020/12/04 10:10:21;;;;;;;;;;;;;;;-3.15;87.02;102337.36;1808840;78;20194;-38
2020/12/04 10:12:49;;;;;;;;;;;;;;;-3.14;87.15;102336.58;1811532;78;20213;-41
2020/12/04 10:15:17;;;;;;;;;;;;;;;-3.12;87.32;102345.27;1806174;78;20464;-39
2020/12/04 10:17:46;;;;;;;;;;;;;;;-3.06;87.45;102344.77;1808874;78;20195;-39
2020/12/04 10:20:19;;;;;;;;;;;;;;;-3.03;87.64;102342.02;1811336;78;20229;-39
2020/12/04 10:22:48;;;;;;;;;;;;;;;-3.00;87.77;102336.18;1797720;78;20188;-40
2020/12/04 10:26:50;;;;;;;;;;;;;;;-2.96;88.02;102340.34;1889733;74;20297;-42
2020/12/04 10:29:18;;;;;;;;;;;;;;;-3.01;88.22;102335.29;1862535;75;20483;-41
2020/12/04 10:31:46;;;;;;;;;;;;;;;-3.01;88.47;102339.53;1876903;75;20207;-42
2020/12/04 10:34:15;;;;;;;;;;;;;;;-2.99;88.70;102336.28;1868425;75;20521;-42
2020/12/04 10:36:44;;;;;;;;;;;;;;;-2.99;88.89;102336.28;1869149;75;20142;-42
2020/12/04 10:39:12;;;;;;;;;;;;;;;-2.98;89.08;102332.05;1871779;75;20459;-41
2020/12/04 10:41:43;;;;;;;;;;;;;;;-2.94;89.26;102331.05;1858167;75;20166;-43
2020/12/04 10:44:15;;;;;;;;;;;;;;;-2.95;89.31;102332.22;1835574;75;20288;-40
2020/12/04 10:46:43;;;;;;;;;;;;;;;-2.93;89.46;102335.78;1870752;75;20201;-39
2020/12/04 10:49:12;;;;;;;;;;;;;;;-2.90;89.58;102334.32;1867793;75;20144;-39
2020/12/04 10:51:44;;;;;;;;;;;;;;;-2.87;89.75;102334.50;1849147;75;20483;-42
2020/12/04 10:54:22;;;;;;;;;;;;;;;-2.86;89.94;102333.71;1852404;75;20199;-40
2020/12/04 10:56:55;;;;;;;;;;;;;;;-2.84;90.10;102332.14;1865305;75;20176;-41
2020/12/04 10:59:29;;;;;;;;;;;;;;;-2.84;90.23;102325.72;1842727;75;20279;-40
2020/12/04 11:02:29;;;;;;;;;;;;;;;-2.84;90.36;102323.16;1836843;77;20172;-44
2020/12/04 11:07:43;;;;;;;;;;;;;;;-2.85;90.64;102334.20;1873297;75;20436;-39
2020/12/04 11:10:11;;;;;;;;;;;;;;;-2.84;90.80;102337.27;1873167;75;20518;-41
2020/12/04 11:12:41;;;;;;;;;;;;;;;-2.81;90.93;102338.73;1870558;75;20175;-41
2020/12/04 11:15:09;;;;;;;;;;;;;;;-2.77;90.99;102328.28;1846254;75;20188;-41
2020/12/04 11:17:52;;;;;;;;;;;;;;;-2.77;91.05;102330.84;1870808;75;20161;-42
2020/12/04 11:20:25;;;;;;;;;;;;;;;-2.74;91.11;102327.56;1817200;75;20530;-41
2020/12/04 11:22:56;;;;;;;;;;;;;;;-2.74;91.08;102332.30;1829751;75;20203;-42
2020/12/04 11:25:25;;;;;;;;;;;;;;;-2.75;91.04;102329.23;1843942;75;20209;-41
2020/12/04 11:27:54;;;;;;;;;;;;;;;-2.77;91.01;102325.72;1849183;75;20201;-42
2020/12/04 11:30:31;;;;;;;;;;;;;;;-2.77;90.94;102333.81;1837326;75;20174;-41
2020/12/04 11:33:01;;;;;;;;;;;;;;;-2.76;90.97;102337.77;1808329;75;20190;-41
2020/12/04 11:35:30;;;;;;;;;;;;;;;-2.74;90.92;102346.42;1875632;75;20267;-41
2020/12/04 11:37:59;;;;;;;;;;;;;;;-2.77;90.83;102326.11;1871700;75;20164;-42
2020/12/04 11:40:28;;;;;;;;;;;;;;;-2.76;90.77;102334.30;1875078;75;20237;-38
2020/12/04 11:42:56;;;;;;;;;;;;;;;-2.75;90.74;102336.05;1847925;75;20158;-38
2020/12/04 11:45:24;;;;;;;;;;;;;;;-2.74;90.68;102339.11;1869805;75;20351;-39
2020/12/04 11:47:52;;;;;;;;;;;;;;;-2.74;90.62;102345.53;1866950;75;20464;-38
2020/12/04 11:50:24;;;;;;;;;;;;;;;-2.71;90.62;102353.44;1867755;75;20209;-45
2020/12/04 11:52:54;;;;;;;;;;;;;;;-2.69;90.63;102341.17;1870284;75;20197;-39
2020/12/04 11:55:25;;;;;;;;;;;;;;;-2.64;90.62;102344.94;1837410;75;20246;-39
2020/12/04 11:57:54;;;;;;;;;;;;;;;-2.61;90.49;102347.69;1841105;75;20255;-38
2020/12/04 12:00:24;;;;;;;;;;;;;;;-2.61;90.35;102336.13;1870269;76;20301;-39
2020/12/04 12:02:51;;;;;;;;;;;;;;;-2.62;90.19;102336.92;1870537;75;20210;-39
2020/12/04 12:05:20;;;;;;;;;;;;;;;-2.63;90.04;102350.58;1867728;75;20462;-40
2020/12/04 12:07:48;;;;;;;;;;;;;;;-2.61;89.90;102345.52;1872476;75;20174;-39
2020/12/04 12:10:16;;;;;;;;;;;;;;;-2.61;89.73;102345.52;1876595;75;20160;-38
2020/12/04 12:12:44;;;;;;;;;;;;;;;-2.61;89.60;102346.41;1866411;75;20164;-39
2020/12/04 12:15:12;;;;;;;;;;;;;;;-2.58;89.47;102345.72;1867019;75;20408;-38
2020/12/04 12:17:40;;;;;;;;;;;;;;;-2.57;89.38;102343.25;1871818;75;20300;-39
2020/12/04 12:20:09;;;;;;;;;;;;;;;-2.56;89.24;102337.73;1870913;75;20158;-39
2020/12/04 12:22:37;;;;;;;;;;;;;;;-2.55;89.12;102349.34;1876742;75;20223;-39
2020/12/04 12:25:05;;;;;;;;;;;;;;;-2.54;89.04;102352.80;1872283;75;20193;-39
2020/12/04 12:27:34;;;;;;;;;;;;;;;-2.53;88.93;102343.92;1871743;75;20209;-39
2020/12/04 12:30:03;;;;;;;;;;;;;;;-2.53;88.86;102344.31;1866787;75;20182;-41
2020/12/04 12:32:34;;;;;;;;;;;;;;;-2.53;88.80;102353.30;1841212;77;20166;-42
2020/12/04 12:35:05;;;;;;;;;;;;;;;-2.51;88.78;102355.58;1836364;77;20204;-42
2020/12/04 12:37:32;;;;;;;;;;;;;;;-2.50;88.73;102354.40;1834021;77;20466;-41
2020/12/04 12:40:03;;;;;;;;;;;;;;;-2.50;88.67;102347.98;1832408;77;20374;-42
2020/12/04 12:42:34;;;;;;;;;;;;;;;-2.47;88.60;102353.69;1834587;77;20182;-42
2020/12/04 12:45:05;;;;;;;;;;;;;;;-2.48;88.54;102350.22;1811521;77;20183;-41
2020/12/04 12:47:34;;;;;;;;;;;;;;;-2.46;88.52;102354.18;1833393;77;20199;-42
2020/12/04 12:50:06;;;;;;;;;;;;;;;-2.45;88.45;102356.85;1835923;76;21251;-42
2020/12/04 12:52:36;;;;;;;;;;;;;;;-2.44;88.36;102356.06;1839714;76;20124;-42
2020/12/04 12:55:05;;;;;;;;;;;;;;;-2.43;88.27;102357.81;1836746;77;20951;-39